Time;durP1;ratioP1;P1;durP2;ratioP2;P2;SDS_P1;SDS_P2;PMS_P1;PMS_P2;Temp;Humidity;BMP_temperature;BMP_pressure;BME280_temperature;BME280_humidity;BME280_pressure;Samples;Min_cycle;Max_cycle;Signal;HPM_P1;HPM_P2
2022/10/20 00:02:14;;;;;;;18.83;8.50;;;12.90;99.90;;;;;;5043062;28;20068;-51
2022/10/20 00:04:41;;;;;;;14.60;8.40;;;12.90;99.90;;;;;;5031425;28;20156;-48
2022/10/20 00:07:08;;;;;;;21.05;8.07;;;12.80;99.90;;;;;;5032068;28;20132;-49
2022/10/20 00:09:34;;;;;;;16.48;8.27;;;12.80;99.90;;;;;;5031445;28;20037;-49
2022/10/20 00:12:01;;;;;;;16.20;8.77;;;12.70;99.90;;;;;;5033194;28;20069;-48
2022/10/20 00:14:28;;;;;;;15.85;8.35;;;12.70;99.90;;;;;;5041428;28;20452;-51
2022/10/20 00:16:55;;;;;;;21.55;8.55;;;12.60;99.90;;;;;;5052786;28;20075;-49
2022/10/20 00:19:21;;;;;;;21.10;8.98;;;12.60;99.90;;;;;;5051742;28;20072;-47
2022/10/20 00:21:48;;;;;;;16.00;8.75;;;12.50;99.90;;;;;;5038693;28;20116;-49
2022/10/20 00:24:15;;;;;;;17.23;9.52;;;12.50;99.90;;;;;;5031371;28;20061;-50
2022/10/20 00:26:41;;;;;;;15.77;8.52;;;12.50;99.90;;;;;;5031894;28;20117;-48
2022/10/20 00:29:08;;;;;;;19.00;8.82;;;12.50;99.90;;;;;;5030625;28;20049;-47
2022/10/20 00:31:35;;;;;;;17.10;8.13;;;12.40;99.90;;;;;;5032303;28;20045;-47
2022/10/20 00:34:02;;;;;;;19.65;8.30;;;12.40;99.90;;;;;;5031269;28;20095;-47
2022/10/20 00:36:29;;;;;;;22.50;8.77;;;12.40;99.90;;;;;;5030915;28;20087;-48
2022/10/20 00:38:58;;;;;;;18.25;8.90;;;12.30;99.90;;;;;;5039252;28;20069;-52
2022/10/20 00:41:27;;;;;;;21.52;9.75;;;12.20;99.90;;;;;;5042424;28;20041;-47
2022/10/20 00:43:56;;;;;;;16.40;8.50;;;12.30;99.90;;;;;;5083517;22;20128;-47
2022/10/20 00:46:35;;;;;;;16.17;9.20;;;12.30;99.90;;;;;;5088025;28;20449;-50
2022/10/20 00:49:12;;;;;;;18.15;8.63;;;12.20;99.90;;;;;;5083251;28;20078;-47
2022/10/20 00:51:39;;;;;;;18.30;9.10;;;12.20;99.90;;;;;;5071947;28;20041;-48
2022/10/20 00:54:19;;;;;;;17.38;8.23;;;12.20;99.90;;;;;;5091391;28;20079;-49
2022/10/20 00:56:48;;;;;;;15.32;8.98;;;12.10;99.90;;;;;;5085550;28;20075;-51
2022/10/20 00:59:20;;;;;;;17.98;8.90;;;12.10;99.90;;;;;;5054246;28;20048;-50
2022/10/20 01:01:47;;;;;;;19.88;9.10;;;12.10;99.90;;;;;;5070440;28;20113;-52
2022/10/20 01:04:15;;;;;;;;;;;12.00;99.90;;;;;;5071766;28;20135;-49
2022/10/20 01:06:42;;;;;;;18.02;9.30;;;12.00;99.90;;;;;;5070254;28;20372;-49
2022/10/20 01:09:09;;;;;;;20.70;11.27;;;11.90;99.90;;;;;;5079956;28;20102;-52
2022/10/20 01:11:57;;;;;;;19.95;9.40;;;11.90;99.90;;;;;;5082178;28;20497;-51
2022/10/20 01:15:08;;;;;;;16.88;9.05;;;11.90;99.90;;;;;;4993526;28;20041;-51
2022/10/20 01:17:44;;;;;;;20.58;9.98;;;12.00;99.90;;;;;;5018717;28;20049;-49
2022/10/20 01:20:35;;;;;;;20.38;9.93;;;12.00;99.90;;;;;;5028199;28;20172;-50
2022/10/20 01:23:05;;;;;;;17.38;8.70;;;12.00;99.90;;;;;;4989438;28;20038;-49
2022/10/20 01:25:34;;;;;;;20.10;10.55;;;12.00;99.90;;;;;;5007999;28;20104;-49
2022/10/20 01:28:13;;;;;;;19.10;8.50;;;12.10;99.90;;;;;;5008558;28;20128;-49
2022/10/20 01:30:45;;;;;;;15.77;9.10;;;12.10;99.90;;;;;;5005568;28;20077;-49
2022/10/20 01:33:33;;;;;;;18.77;8.52;;;12.10;99.90;;;;;;5028997;28;20073;-50
2022/10/20 01:36:20;;;;;;;23.10;10.25;;;12.10;99.90;;;;;;5017066;28;20060;-49
2022/10/20 01:38:53;;;;;;;21.58;8.43;;;12.00;99.90;;;;;;4998179;28;20093;-49
2022/10/20 01:41:43;;;;;;;18.02;8.93;;;12.10;99.90;;;;;;5018558;28;20104;-51
2022/10/20 01:44:13;;;;;;;16.98;8.30;;;12.00;99.90;;;;;;5007818;28;20046;-50
2022/10/20 01:46:43;;;;;;;13.90;7.65;;;11.90;99.90;;;;;;5017034;28;20077;-49
2022/10/20 01:49:11;;;;;;;11.30;7.25;;;11.90;99.90;;;;;;5011211;28;20507;-49
2022/10/20 01:51:38;;;;;;;16.88;7.78;;;11.80;99.90;;;;;;5039337;28;20088;-50
2022/10/20 01:54:29;;;;;;;14.90;7.72;;;11.70;99.90;;;;;;5088295;28;20097;-51
2022/10/20 01:57:18;;;;;;;16.88;7.38;;;11.60;99.90;;;;;;5083032;28;20101;-50
2022/10/20 01:59:59;;;;;;;15.20;7.75;;;11.60;99.90;;;;;;5089255;28;20044;-49
2022/10/20 02:03:01;;;;;;;16.45;7.68;;;11.50;99.90;;;;;;5071231;28;20072;-50
2022/10/20 02:05:47;;;;;;;11.88;7.35;;;11.40;99.90;;;;;;5071081;28;20068;-49
2022/10/20 02:08:32;;;;;;;14.18;8.13;;;11.40;99.90;;;;;;5070348;28;20060;-49
2022/10/20 02:11:03;;;;;;;15.27;7.13;;;11.50;99.90;;;;;;5070285;28;20408;-50
2022/10/20 02:13:30;;;;;;;15.85;8.10;;;11.40;99.90;;;;;;5072180;28;20076;-49
2022/10/20 02:16:03;;;;;;;15.35;7.68;;;11.50;99.90;;;;;;5083014;28;20068;-49
2022/10/20 02:18:35;;;;;;;14.70;7.28;;;11.50;99.90;;;;;;5084944;28;20075;-49
2022/10/20 02:21:03;;;;;;;16.67;8.68;;;11.50;99.90;;;;;;5072122;28;20068;-50
2022/10/20 02:23:33;;;;;;;20.00;8.20;;;11.40;99.90;;;;;;5087245;28;20040;-48
2022/10/20 02:26:08;;;;;;;15.75;7.82;;;11.40;99.90;;;;;;5074156;28;20094;-49
2022/10/20 02:28:38;;;;;;;16.60;7.70;;;11.40;99.90;;;;;;5075518;28;20612;-49
2022/10/20 02:31:05;;;;;;;14.80;7.22;;;11.30;99.90;;;;;;5083000;28;20076;-48
2022/10/20 02:33:32;;;;;;;;;;;11.30;99.90;;;;;;5076355;28;20074;-49
2022/10/20 02:36:02;;;;;;;12.90;7.45;;;11.30;99.90;;;;;;5074453;28;19978;-49
2022/10/20 02:38:29;;;;;;;18.27;7.22;;;11.30;99.90;;;;;;5074994;28;20130;-49
2022/10/20 02:40:56;;;;;;;17.70;7.22;;;11.30;99.90;;;;;;5093446;28;20497;-50
2022/10/20 02:43:22;;;;;;;14.10;8.00;;;11.30;99.90;;;;;;5074913;28;20072;-48
2022/10/20 02:45:49;;;;;;;18.90;8.00;;;11.40;99.90;;;;;;5073022;28;20207;-49
2022/10/20 02:48:16;;;;;;;18.83;7.57;;;11.40;99.90;;;;;;5074231;28;20068;-49
2022/10/20 02:50:42;;;;;;;13.02;7.78;;;11.30;99.90;;;;;;5093009;28;20035;-50
2022/10/20 02:53:09;;;;;;;14.73;7.72;;;11.30;99.90;;;;;;5079576;28;20076;-51
2022/10/20 02:55:36;;;;;;;13.85;7.50;;;11.30;99.90;;;;;;5073538;28;20048;-49
2022/10/20 02:58:03;;;;;;;14.82;7.88;;;11.30;99.90;;;;;;5055700;28;20072;-50
2022/10/20 03:00:30;;;;;;;15.13;6.70;;;11.20;99.90;;;;;;5085538;28;20071;-51
2022/10/20 03:02:57;;;;;;;;;;;11.20;99.90;;;;;;5093857;28;20075;-49
2022/10/20 03:05:23;;;;;;;13.27;7.10;;;11.20;99.90;;;;;;5057918;28;20592;-49
2022/10/20 03:07:50;;;;;;;24.55;7.85;;;11.20;99.90;;;;;;5073160;28;20041;-50
2022/10/20 03:10:17;;;;;;;12.48;7.18;;;11.20;99.90;;;;;;5071719;28;20123;-49
2022/10/20 03:12:44;;;;;;;16.30;7.15;;;11.20;99.90;;;;;;5086848;28;20068;-51
2022/10/20 03:15:11;;;;;;;18.60;7.95;;;11.20;99.90;;;;;;5085392;28;20512;-50
2022/10/20 03:17:37;;;;;;;13.90;7.18;;;11.20;99.90;;;;;;5093398;28;20067;-51
2022/10/20 03:20:06;;;;;;;13.82;7.60;;;11.10;99.90;;;;;;5092599;28;20643;-50
2022/10/20 03:22:33;;;;;;;14.68;6.55;;;11.20;99.90;;;;;;5085442;28;20074;-50
2022/10/20 03:25:00;;;;;;;16.73;6.80;;;11.20;99.90;;;;;;5073794;28;20443;-50
2022/10/20 03:27:26;;;;;;;11.65;6.35;;;11.20;99.90;;;;;;5091777;28;20068;-49
2022/10/20 03:29:53;;;;;;;12.65;6.20;;;11.10;99.90;;;;;;5092648;28;20457;-49
2022/10/20 03:32:20;;;;;;;14.40;7.43;;;11.10;99.90;;;;;;5087699;28;20082;-49
2022/10/20 03:34:46;;;;;;;17.02;6.43;;;11.10;99.90;;;;;;5092215;28;20044;-50
2022/10/20 03:37:13;;;;;;;21.33;8.13;;;11.10;99.90;;;;;;5091632;28;20074;-49
2022/10/20 03:39:40;;;;;;;17.88;6.25;;;11.10;99.90;;;;;;5092429;28;20074;-48
2022/10/20 03:42:07;;;;;;;13.73;6.88;;;11.10;99.90;;;;;;5092221;28;20071;-49
2022/10/20 03:44:33;;;;;;;12.52;6.85;;;11.10;99.90;;;;;;5091907;28;20067;-49
2022/10/20 03:47:00;;;;;;;14.32;6.35;;;11.10;99.90;;;;;;5087629;28;20079;-51
2022/10/20 03:49:27;;;;;;;14.45;6.43;;;11.10;99.90;;;;;;5090511;28;20565;-50
2022/10/20 03:51:53;;;;;;;14.68;7.03;;;11.10;99.90;;;;;;5092202;28;20067;-49
2022/10/20 03:54:20;;;;;;;13.50;6.68;;;11.10;99.90;;;;;;5076737;28;20045;-49
2022/10/20 03:56:47;;;;;;;15.07;6.20;;;11.10;99.90;;;;;;5092269;28;20040;-49
2022/10/20 03:59:13;;;;;;;12.10;6.15;;;11.10;99.90;;;;;;5091228;28;20101;-50
2022/10/20 04:01:44;;;;;;;9.55;6.00;;;11.10;99.90;;;;;;5087791;28;20573;-49
2022/10/20 04:04:11;;;;;;;11.50;6.40;;;11.10;99.90;;;;;;5085638;28;20715;-48
2022/10/20 04:06:38;;;;;;;14.25;6.63;;;11.00;99.90;;;;;;5085701;28;20109;-50
2022/10/20 04:09:04;;;;;;;12.95;6.57;;;11.00;99.90;;;;;;5087826;28;20090;-49
2022/10/20 04:11:32;;;;;;;12.30;6.20;;;11.00;99.90;;;;;;5076055;28;20040;-48
2022/10/20 04:13:58;;;;;;;14.18;6.30;;;11.00;99.90;;;;;;5091327;28;20083;-49
2022/10/20 04:16:25;;;;;;;10.07;6.07;;;10.90;99.90;;;;;;5086436;28;20093;-50
2022/10/20 04:18:52;;;;;;;11.63;5.60;;;10.90;99.90;;;;;;5082472;28;20074;-49
2022/10/20 04:21:19;;;;;;;17.33;6.10;;;10.90;99.90;;;;;;5091255;28;20036;-51
2022/10/20 04:23:46;;;;;;;10.40;4.93;;;10.90;99.90;;;;;;5087109;28;20580;-51
2022/10/20 04:26:14;;;;;;;11.43;5.68;;;10.90;99.90;;;;;;5087345;28;20036;-51
2022/10/20 04:28:41;;;;;;;9.80;5.82;;;10.90;99.90;;;;;;5091412;28;20606;-50
2022/10/20 04:31:08;;;;;;;13.60;6.18;;;10.90;99.90;;;;;;5069454;28;20110;-50
2022/10/20 04:33:35;;;;;;;15.18;8.05;;;10.80;99.90;;;;;;5088866;28;20090;-50
2022/10/20 04:36:05;;;;;;;13.75;8.25;;;10.80;99.90;;;;;;5090996;28;20064;-50
2022/10/20 04:38:33;;;;;;;15.15;6.70;;;10.70;99.90;;;;;;5091586;28;20070;-49
2022/10/20 04:41:03;;;;;;;11.63;5.88;;;10.80;99.90;;;;;;5091302;28;20992;-49
2022/10/20 04:43:33;;;;;;;13.00;5.90;;;10.80;99.90;;;;;;5086686;28;20040;-49
2022/10/20 04:46:04;;;;;;;9.80;5.32;;;10.80;99.90;;;;;;5091347;28;20067;-49
2022/10/20 04:48:36;;;;;;;14.52;6.05;;;10.80;99.90;;;;;;5075620;28;20065;-49
2022/10/20 04:51:08;;;;;;;11.10;5.65;;;10.80;99.90;;;;;;5071406;28;20048;-49
2022/10/20 04:53:35;;;;;;;13.32;5.85;;;10.80;99.90;;;;;;5070354;28;20166;-50
2022/10/20 04:56:04;;;;;;;15.93;6.25;;;10.80;99.90;;;;;;5061496;28;20078;-49
2022/10/20 04:58:31;;;;;;;11.75;6.18;;;10.80;99.90;;;;;;5081392;28;20036;-49
2022/10/20 05:01:07;;;;;;;11.43;6.70;;;10.80;99.90;;;;;;5075540;28;20044;-50
2022/10/20 05:03:35;;;;;;;18.77;6.63;;;10.70;99.90;;;;;;5072951;28;20032;-50
2022/10/20 05:06:10;;;;;;;12.00;6.07;;;10.70;99.90;;;;;;5077434;28;20097;-51
2022/10/20 05:08:38;;;;;;;12.30;6.28;;;10.70;99.90;;;;;;5070445;28;20484;-50
2022/10/20 05:11:05;;;;;;;11.25;6.03;;;10.60;99.90;;;;;;5080884;28;20114;-50
2022/10/20 05:13:32;;;;;;;12.77;5.82;;;10.60;99.90;;;;;;5074938;28;20165;-49
2022/10/20 05:15:59;;;;;;;13.15;5.88;;;10.60;99.90;;;;;;5077008;28;20064;-49
2022/10/20 05:18:26;;;;;;;10.48;6.28;;;10.60;99.90;;;;;;5071166;28;20082;-49
2022/10/20 05:20:53;;;;;;;;;;;10.60;99.90;;;;;;5070549;28;21284;-49
2022/10/20 05:23:35;;;;;;;18.92;6.00;;;10.60;99.90;;;;;;5073250;28;20380;-51
2022/10/20 05:26:03;;;;;;;16.00;6.60;;;10.70;99.90;;;;;;5079508;28;20079;-49
2022/10/20 05:28:30;;;;;;;11.40;6.45;;;10.70;99.90;;;;;;5081126;28;20048;-48
2022/10/20 05:31:01;;;;;;;14.35;6.43;;;10.70;99.90;;;;;;5079821;28;20547;-51
2022/10/20 05:33:28;;;;;;;11.65;5.75;;;10.60;99.90;;;;;;5090644;28;20581;-50
2022/10/20 05:36:21;;;;;;;16.13;6.70;;;10.60;99.90;;;;;;5083090;28;20401;-49
2022/10/20 05:38:50;;;;;;;11.27;6.28;;;10.60;99.90;;;;;;5085301;28;20123;-49
2022/10/20 05:41:19;;;;;;;10.13;6.00;;;10.60;99.90;;;;;;5077876;28;20572;-50
2022/10/20 05:43:48;;;;;;;14.13;6.65;;;10.50;99.90;;;;;;5070370;28;20128;-49
2022/10/20 05:46:16;;;;;;;14.60;6.45;;;10.50;99.90;;;;;;5070316;28;20049;-50
2022/10/20 05:48:43;;;;;;;18.73;6.75;;;10.50;99.90;;;;;;5071018;28;20068;-50
2022/10/20 05:51:13;;;;;;;12.00;6.93;;;10.50;99.90;;;;;;5076364;28;20040;-50
2022/10/20 05:53:42;;;;;;;11.73;5.78;;;10.40;99.90;;;;;;5070339;28;20032;-49
2022/10/20 05:56:11;;;;;;;12.18;6.90;;;10.40;99.90;;;;;;5068731;28;20071;-50
2022/10/20 05:58:39;;;;;;;11.55;6.30;;;10.50;99.90;;;;;;5070411;28;20493;-50
2022/10/20 06:01:08;;;;;;;15.10;7.82;;;10.40;99.90;;;;;;5070118;28;20071;-50
2022/10/20 06:03:36;;;;;;;15.13;5.97;;;10.40;99.90;;;;;;5069024;28;20037;-49
2022/10/20 06:06:03;;;;;;;15.55;7.15;;;10.50;99.90;;;;;;5080105;28;20048;-52
2022/10/20 06:08:31;;;;;;;15.73;5.72;;;10.50;99.90;;;;;;5070302;28;20087;-48
2022/10/20 06:11:07;;;;;;;11.43;5.50;;;10.50;99.90;;;;;;5077847;28;20427;-50
2022/10/20 06:13:34;;;;;;;18.52;6.65;;;10.50;99.90;;;;;;5087919;28;20485;-49
2022/10/20 06:16:06;;;;;;;;;;;10.50;99.90;;;;;;5089039;28;20040;-50
2022/10/20 06:18:33;;;;;;;13.32;6.45;;;10.50;99.90;;;;;;5087180;28;19920;-51
2022/10/20 06:21:07;;;;;;;;;;;10.40;99.90;;;;;;5090633;28;20032;-50
2022/10/20 06:23:34;;;;;;;15.57;5.47;;;10.50;99.90;;;;;;5086256;28;20244;-49
2022/10/20 06:26:02;;;;;;;17.20;6.40;;;10.50;99.90;;;;;;5071100;28;20066;-49
2022/10/20 06:28:31;;;;;;;9.50;5.35;;;10.50;99.90;;;;;;5069023;28;20093;-49
2022/10/20 06:30:58;;;;;;;10.27;5.53;;;10.60;99.90;;;;;;5071773;28;20091;-49
2022/10/20 06:33:29;;;;;;;16.00;5.78;;;10.60;99.90;;;;;;5071547;28;20048;-50
2022/10/20 06:36:00;;;;;;;11.57;5.93;;;10.60;99.90;;;;;;5090458;28;20048;-48
2022/10/20 06:38:27;;;;;;;10.90;5.35;;;10.60;99.90;;;;;;5087523;28;20554;-47
2022/10/20 06:40:54;;;;;;;18.40;6.10;;;10.60;99.90;;;;;;5088075;28;20040;-49
2022/10/20 06:43:21;;;;;;;14.65;5.75;;;10.60;99.90;;;;;;5083249;28;20129;-49
2022/10/20 06:45:59;;;;;;;15.05;5.80;;;10.60;99.90;;;;;;5082730;28;20380;-49
2022/10/20 06:48:27;;;;;;;12.15;5.55;;;10.60;99.90;;;;;;5086153;28;20123;-50
2022/10/20 06:51:09;;;;;;;15.95;5.90;;;10.60;99.90;;;;;;5087688;28;20072;-49
2022/10/20 06:53:37;;;;;;;14.55;5.57;;;10.60;99.90;;;;;;5088554;28;20101;-49
2022/10/20 06:56:12;;;;;;;12.45;5.15;;;10.60;99.90;;;;;;5089918;28;20046;-49
2022/10/20 06:58:41;;;;;;;11.90;5.60;;;10.60;99.90;;;;;;5086462;28;20098;-50
2022/10/20 07:01:16;;;;;;;15.07;5.72;;;10.60;99.90;;;;;;5089597;28;20076;-49
2022/10/20 07:03:44;;;;;;;10.38;5.88;;;10.70;99.90;;;;;;5086229;28;20525;-50
2022/10/20 07:06:18;;;;;;;12.63;5.65;;;10.80;99.90;;;;;;5085695;28;20459;-49
2022/10/20 07:08:45;;;;;;;11.40;6.30;;;10.90;99.90;;;;;;5073338;28;20029;-49
2022/10/20 07:11:15;;;;;;;15.90;7.07;;;11.10;99.90;;;;;;5073388;28;20040;-51
2022/10/20 07:13:42;;;;;;;11.50;6.18;;;11.10;99.90;;;;;;5072807;28;20044;-47
2022/10/20 07:16:12;;;;;;;9.73;5.63;;;11.20;99.90;;;;;;5085931;28;20135;-49
2022/10/20 07:18:39;;;;;;;14.15;5.00;;;11.20;99.90;;;;;;5092212;28;20036;-51
2022/10/20 07:21:18;;;;;;;9.48;4.88;;;11.40;99.90;;;;;;5090750;28;20089;-50
2022/10/20 07:23:45;;;;;;;16.55;6.22;;;11.50;99.90;;;;;;5092280;28;20539;-52
2022/10/20 07:26:21;;;;;;;11.57;4.97;;;11.60;99.90;;;;;;5086552;28;20382;-49
2022/10/20 07:28:51;;;;;;;9.63;4.60;;;11.70;99.90;;;;;;5088729;28;20082;-50
2022/10/20 07:31:31;;;;;;;10.90;5.22;;;11.70;99.90;;;;;;5089874;28;20544;-49
2022/10/20 07:33:59;;;;;;;33.05;9.73;;;11.80;99.90;;;;;;5093233;28;20051;-48
2022/10/20 07:36:42;;;;;;;9.48;5.05;;;11.90;99.90;;;;;;5080312;28;20041;-50
2022/10/20 07:39:10;;;;;;;7.82;4.05;;;12.00;99.90;;;;;;5072581;28;20037;-49
2022/10/20 07:41:38;;;;;;;9.93;4.68;;;12.10;99.90;;;;;;5087378;28;20047;-50
2022/10/20 07:44:05;;;;;;;8.63;4.32;;;12.20;99.90;;;;;;5072556;28;20040;-49
2022/10/20 07:46:32;;;;;;;11.45;4.35;;;12.30;99.90;;;;;;5082130;28;20068;-49
2022/10/20 07:48:59;;;;;;;9.15;3.92;;;12.40;99.90;;;;;;5075872;28;20028;-49
2022/10/20 07:51:46;;;;;;;11.65;3.95;;;12.60;99.90;;;;;;5071550;28;20028;-48
2022/10/20 07:54:12;;;;;;;10.30;3.95;;;12.80;99.90;;;;;;5072296;28;20033;-50
2022/10/20 07:56:41;;;;;;;10.63;4.45;;;12.90;99.90;;;;;;5099461;22;20071;-47
2022/10/20 07:59:33;;;;;;;5.85;3.33;;;13.00;99.90;;;;;;5083519;28;20036;-50
2022/10/20 08:02:00;;;;;;;6.00;3.95;;;13.10;99.90;;;;;;5110923;27;20100;-53
2022/10/20 08:04:30;;;;;;;9.68;3.70;;;13.10;99.90;;;;;;5119773;27;20046;-47
2022/10/20 08:06:57;;;;;;;7.88;3.63;;;13.20;99.90;;;;;;5124153;27;20084;-50
2022/10/20 08:09:24;;;;;;;7.15;3.55;;;13.20;99.90;;;;;;5106723;28;20485;-49
2022/10/20 08:11:51;;;;;;;7.32;3.70;;;13.30;99.90;;;;;;5095545;28;20511;-48
2022/10/20 08:14:22;;;;;;;10.43;4.35;;;13.30;99.90;;;;;;5103293;28;20044;-46
2022/10/20 08:16:48;;;;;;;10.82;3.60;;;13.40;99.90;;;;;;5113355;28;20039;-47
2022/10/20 08:19:22;;;;;;;10.82;3.78;;;13.30;99.90;;;;;;5106825;28;20062;-50
2022/10/20 08:21:57;;;;;;;7.05;3.58;;;13.40;99.90;;;;;;5088603;28;20089;-48
2022/10/20 08:24:24;;;;;;;5.78;3.55;;;13.50;99.90;;;;;;5107830;27;20482;-47
2022/10/20 08:26:51;;;;;;;7.95;3.70;;;13.80;99.90;;;;;;5132656;27;20344;-47
2022/10/20 08:29:17;;;;;;;6.50;3.83;;;13.80;99.90;;;;;;5113573;27;20119;-48
2022/10/20 08:31:44;;;;;;;5.90;3.50;;;13.80;99.90;;;;;;5092566;28;20051;-48
2022/10/20 08:34:11;;;;;;;6.40;3.53;;;13.80;99.90;;;;;;5099139;28;20092;-47
2022/10/20 08:36:37;;;;;;;9.10;3.45;;;13.90;99.90;;;;;;5105263;28;20547;-50
2022/10/20 08:39:04;;;;;;;4.18;2.78;;;14.00;99.90;;;;;;5111988;28;20051;-48
2022/10/20 08:41:37;;;;;;;4.47;2.70;;;14.00;99.90;;;;;;5111606;28;20071;-47
2022/10/20 08:44:31;;;;;;;10.35;4.85;;;14.00;99.90;;;;;;5103184;28;20127;-48
2022/10/20 08:47:00;;;;;;;6.28;3.13;;;14.00;99.90;;;;;;5112366;28;20040;-47
2022/10/20 08:49:31;;;;;;;7.90;2.95;;;14.10;99.90;;;;;;5118194;27;20039;-50
2022/10/20 08:51:59;;;;;;;5.68;2.70;;;14.20;99.90;;;;;;5132398;27;20043;-50
2022/10/20 08:54:25;;;;;;;5.47;3.05;;;14.30;99.90;;;;;;5093951;27;20036;-47
2022/10/20 08:56:52;;;;;;;5.88;2.67;;;14.50;99.90;;;;;;5090790;28;20100;-49
2022/10/20 08:59:27;;;;;;;6.35;2.78;;;14.80;99.90;;;;;;5121848;27;20570;-46
2022/10/20 09:01:55;;;;;;;7.30;2.92;;;15.00;99.90;;;;;;5129347;27;20563;-50
2022/10/20 09:04:33;;;;;;;11.30;3.15;;;15.20;99.90;;;;;;5094293;27;20130;-48
2022/10/20 09:07:08;;;;;;;5.68;2.63;;;15.30;99.90;;;;;;5125284;27;20050;-50
2022/10/20 09:09:35;;;;;;;11.65;3.10;;;15.50;99.90;;;;;;5091051;28;20044;-52
2022/10/20 09:12:05;;;;;;;9.02;2.83;;;15.60;99.90;;;;;;5090485;28;20251;-48
2022/10/20 09:14:35;;;;;;;8.40;2.67;;;15.70;99.90;;;;;;5106310;27;20050;-52
2022/10/20 09:17:03;;;;;;;18.45;4.15;;;15.80;99.90;;;;;;5108311;27;20070;-49
2022/10/20 09:19:35;;;;;;;10.50;3.33;;;15.80;99.90;;;;;;5091563;28;20046;-49
2022/10/20 09:22:05;;;;;;;4.97;2.70;;;16.00;99.90;;;;;;5098227;28;20070;-47
2022/10/20 09:24:35;;;;;;;5.15;2.63;;;16.10;99.90;;;;;;5101381;28;20559;-48
2022/10/20 09:27:34;;;;;;;6.82;2.65;;;16.10;99.90;;;;;;5076381;28;20036;-49
2022/10/20 09:30:18;;;;;;;7.55;2.83;;;16.20;99.90;;;;;;5122672;27;20475;-49
2022/10/20 09:32:46;;;;;;;10.52;2.67;;;16.20;99.90;;;;;;5096323;27;20052;-47
2022/10/20 09:35:21;;;;;;;4.93;2.30;;;16.10;99.90;;;;;;5090699;28;20059;-50
2022/10/20 09:38:16;;;;;;;6.32;2.63;;;16.10;99.90;;;;;;5101582;27;20039;-47
2022/10/20 09:40:53;;;;;;;10.45;2.75;;;16.00;99.90;;;;;;5103182;27;20419;-51
2022/10/20 09:43:20;;;;;;;11.93;2.90;;;16.10;99.90;;;;;;5126288;27;20069;-48
2022/10/20 09:46:02;;;;;;;8.52;2.70;;;16.20;99.90;;;;;;5109900;28;20089;-47
2022/10/20 09:48:46;;;;;;;8.38;2.72;;;16.30;99.90;;;;;;5108700;28;20503;-48
2022/10/20 09:51:17;;;;;;;7.63;2.30;;;16.40;99.90;;;;;;5122678;27;20055;-48
2022/10/20 09:53:57;;;;;;;9.75;2.90;;;16.50;99.90;;;;;;5131550;27;20043;-48
2022/10/20 09:56:34;;;;;;;8.68;2.38;;;16.60;99.90;;;;;;5102649;28;20512;-51
2022/10/20 09:59:04;;;;;;;8.40;2.63;;;16.70;99.90;;;;;;5105285;27;20043;-51
2022/10/20 10:01:31;;;;;;;7.78;2.83;;;16.70;99.90;;;;;;5103909;28;20573;-47
2022/10/20 10:04:00;;;;;;;6.82;2.40;;;16.70;99.90;;;;;;5123245;28;20060;-48
2022/10/20 10:06:36;;;;;;;5.97;2.35;;;16.90;99.90;;;;;;5091742;28;20088;-47
2022/10/20 10:09:27;;;;;;;4.40;2.33;;;16.90;99.90;;;;;;5103404;28;20041;-48
2022/10/20 10:12:03;;;;;;;6.55;2.13;;;17.00;99.90;;;;;;5121358;28;20084;-50
2022/10/20 10:14:34;;;;;;;5.28;2.17;;;17.10;99.90;;;;;;5109840;28;20044;-47
2022/10/20 10:17:01;;;;;;;9.52;2.67;;;17.20;99.90;;;;;;5123580;27;20035;-50
2022/10/20 10:19:30;;;;;;;6.45;2.22;;;17.20;99.90;;;;;;5123872;28;20078;-47
2022/10/20 10:22:00;;;;;;;9.30;2.13;;;17.10;99.90;;;;;;5110713;28;20117;-49
2022/10/20 10:24:38;;;;;;;8.73;2.33;;;17.20;99.90;;;;;;5100841;28;20071;-48
2022/10/20 10:27:27;;;;;;;6.43;2.45;;;17.40;99.90;;;;;;5102583;28;20064;-49
2022/10/20 10:30:13;;;;;;;4.28;1.88;;;17.60;99.90;;;;;;5110512;28;20035;-49
2022/10/20 10:32:43;;;;;;;6.00;2.30;;;17.70;99.90;;;;;;5111528;28;20054;-50
2022/10/20 10:35:36;;;;;;;4.07;2.17;;;17.80;99.90;;;;;;5096179;28;20462;-48
2022/10/20 10:38:03;;;;;;;5.20;2.28;;;17.80;99.90;;;;;;5089438;28;20485;-51
2022/10/20 10:41:06;;;;;;;5.43;2.53;;;18.00;99.90;;;;;;5101955;28;20031;-48
2022/10/20 10:43:54;;;;;;;5.60;2.35;;;18.20;99.90;;;;;;5058117;28;20116;-49
2022/10/20 10:46:35;;;;;;;10.05;3.45;;;18.40;99.90;;;;;;5114367;28;20051;-50
2022/10/20 10:49:02;;;;;;;5.68;2.22;;;18.60;99.90;;;;;;5118679;27;20406;-51
2022/10/20 10:51:41;;;;;;;4.97;2.25;;;18.70;99.90;;;;;;5135197;27;20146;-47
2022/10/20 10:54:26;;;;;;;4.63;2.20;;;18.70;99.90;;;;;;5086372;28;20504;-48
2022/10/20 10:57:09;;;;;;;4.72;1.88;;;18.90;99.90;;;;;;5106239;27;20063;-51
2022/10/20 10:59:43;;;;;;;4.13;2.05;;;18.90;99.90;;;;;;5120133;27;20031;-48
2022/10/20 11:02:23;;;;;;;5.00;2.00;;;19.00;99.90;;;;;;5131101;27;20059;-47
2022/10/20 11:05:24;;;;;;;6.57;2.03;;;19.10;99.90;;;;;;5100262;28;20040;-51
2022/10/20 11:08:07;;;;;;;4.25;1.92;;;19.30;99.90;;;;;;5116766;27;20092;-48
2022/10/20 11:11:00;;;;;;;5.50;1.95;;;19.40;99.90;;;;;;5135020;27;20558;-48
2022/10/20 11:13:36;;;;;;;3.55;1.90;;;19.60;99.90;;;;;;5103014;27;20085;-48
2022/10/20 11:16:28;;;;;;;4.03;2.05;;;19.60;99.90;;;;;;5109241;27;20114;-49
2022/10/20 11:19:13;;;;;;;6.18;2.05;;;19.80;99.90;;;;;;5125112;27;20076;-49
2022/10/20 11:21:59;;;;;;;6.28;2.03;;;19.80;99.90;;;;;;5105912;27;20068;-49
2022/10/20 11:24:55;;;;;;;7.90;3.45;;;19.60;99.90;;;;;;5109970;27;20468;-48
2022/10/20 11:27:26;;;;;;;3.55;1.90;;;19.70;99.90;;;;;;5105195;27;20101;-49
2022/10/20 11:30:03;;;;;;;3.80;2.03;;;19.90;99.90;;;;;;5110625;28;20096;-48
2022/10/20 11:32:53;;;;;;;6.57;2.20;;;20.10;99.90;;;;;;5092314;28;20036;-49
2022/10/20 11:35:41;;;;;;;5.15;1.98;;;20.00;99.90;;;;;;5092694;28;20064;-51
2022/10/20 11:38:13;;;;;;;;;;;20.00;99.90;;;;;;5110252;27;20035;-49
2022/10/20 11:40:47;;;;;;;8.40;2.08;;;20.10;99.90;;;;;;5129984;27;19985;-48
2022/10/20 11:43:24;;;;;;;7.20;1.67;;;20.20;99.90;;;;;;5093427;28;20076;-48
2022/10/20 11:45:54;;;;;;;;;;;20.20;99.90;;;;;;5098596;28;20093;-51
2022/10/20 11:48:51;;;;;;;9.82;2.00;;;20.20;99.90;;;;;;5100646;27;19955;-48
2022/10/20 11:51:30;;;;;;;6.22;2.90;;;20.20;99.90;;;;;;5112832;27;20117;-50
2022/10/20 11:54:02;;;;;;;7.10;2.10;;;20.30;99.90;;;;;;5092249;28;20048;-48
2022/10/20 11:56:48;;;;;;;6.22;1.90;;;20.30;99.90;;;;;;5092014;28;20075;-48
2022/10/20 11:59:42;;;;;;;5.32;1.92;;;20.30;99.90;;;;;;5102985;28;20101;-47
2022/10/20 12:02:47;;;;;;;2.92;1.77;;;20.20;99.90;;;;;;5113521;28;20043;-48
2022/10/20 12:06:07;;;;;;;5.22;2.15;;;20.30;99.90;;;;;;5117221;27;20075;-48
2022/10/20 12:09:10;;;;;;;3.42;1.80;;;20.30;99.90;;;;;;5049209;28;20075;-50
2022/10/20 12:11:59;;;;;;;3.90;1.95;;;20.40;99.90;;;;;;5059962;28;20415;-51
2022/10/20 12:14:32;;;;;;;;;;;20.30;99.90;;;;;;5100730;28;20040;-48
2022/10/20 12:17:13;;;;;;;3.35;1.63;;;20.30;99.90;;;;;;5124841;27;19987;-50
2022/10/20 12:19:40;;;;;;;10.02;2.20;;;20.20;99.90;;;;;;5120247;27;20492;-50
2022/10/20 12:22:12;;;;;;;11.88;1.55;;;20.10;99.90;;;;;;5092942;28;20123;-48
2022/10/20 12:25:02;;;;;;;8.50;2.47;;;20.10;99.90;;;;;;5099144;28;20040;-51
2022/10/20 12:27:29;;;;;;;5.22;2.08;;;20.30;99.90;;;;;;5112598;28;20047;-47
2022/10/20 12:30:03;;;;;;;4.22;2.17;;;20.30;99.90;;;;;;5104933;28;20080;-48
2022/10/20 12:33:07;;;;;;;5.30;1.95;;;20.20;99.90;;;;;;5117160;27;20100;-47
2022/10/20 12:35:56;;;;;;;8.55;2.03;;;20.00;99.90;;;;;;5093977;27;20071;-50
2022/10/20 12:38:23;;;;;;;4.28;1.95;;;20.10;99.90;;;;;;5090466;28;20501;-48
2022/10/20 12:40:56;;;;;;;8.13;1.83;;;20.10;99.90;;;;;;5086635;28;20089;-48
2022/10/20 12:43:47;;;;;;;4.88;2.00;;;20.10;99.90;;;;;;5110431;28;20039;-47
2022/10/20 12:46:25;;;;;;;4.57;2.38;;;20.20;99.90;;;;;;5112760;28;20035;-48
2022/10/20 12:48:58;;;;;;;6.90;2.60;;;20.30;99.90;;;;;;5100937;28;20093;-49
2022/10/20 12:51:48;;;;;;;8.45;2.22;;;20.40;99.90;;;;;;5111831;28;20054;-48
2022/10/20 12:54:29;;;;;;;7.88;1.98;;;20.50;99.90;;;;;;5096231;28;20118;-49
2022/10/20 12:57:02;;;;;;;3.97;2.42;;;20.70;99.90;;;;;;5121314;27;20122;-49
2022/10/20 12:59:29;;;;;;;8.48;2.05;;;21.00;99.90;;;;;;5096911;27;20101;-48
2022/10/20 13:02:08;;;;;;;8.43;2.45;;;21.30;99.90;;;;;;5091384;28;20048;-48
2022/10/20 13:04:53;;;;;;;7.60;2.05;;;21.40;99.90;;;;;;5098137;28;20063;-52
2022/10/20 13:07:45;;;;;;;6.70;1.85;;;21.40;99.90;;;;;;5109642;28;20097;-48
2022/10/20 13:10:30;;;;;;;4.25;2.20;;;21.30;99.90;;;;;;5112298;28;20042;-48
2022/10/20 13:13:00;;;;;;;3.50;1.83;;;21.30;99.90;;;;;;5090047;28;20120;-48
2022/10/20 13:15:44;;;;;;;3.97;2.28;;;21.30;99.90;;;;;;5104499;27;20165;-49